sensor_id;sensor_type;location;lat;lon;timestamp;P1;durP1;ratioP1;P2;durP2;ratioP2
5678;SDS011;2862;52.560;13.566;2022-10-16T00:06:35;18.53;;;2.47;;
5678;SDS011;2862;52.560;13.566;2022-10-16T00:16:40;19.33;;;2.20;;
5678;SDS011;2862;52.560;13.566;2022-10-16T00:26:45;17.93;;;3.50;;
5678;SDS011;2862;52.560;13.566;2022-10-16T00:36:52;25.03;;;3.00;;
5678;SDS011;2862;52.560;13.566;2022-10-16T00:46:57;20.67;;;5.10;;
5678;SDS011;2862;52.560;13.566;2022-10-16T00:57:01;15.80;;;2.17;;
5678;SDS011;2862;52.560;13.566;2022-10-16T01:07:09;15.40;;;1.80;;
5678;SDS011;2862;52.560;13.566;2022-10-16T01:17:17;17.00;;;2.37;;
5678;SDS011;2862;52.560;13.566;2022-10-16T01:27:26;19.53;;;3.17;;
5678;SDS011;2862;52.560;13.566;2022-10-16T01:37:32;17.50;;;1.73;;
5678;SDS011;2862;52.560;13.566;2022-10-16T01:47:42;16.47;;;2.63;;
5678;SDS011;2862;52.560;13.566;2022-10-16T01:57:47;19.60;;;4.13;;
5678;SDS011;2862;52.560;13.566;2022-10-16T02:07:54;19.43;;;3.27;;
5678;SDS011;2862;52.560;13.566;2022-10-16T02:17:57;15.23;;;1.77;;
5678;SDS011;2862;52.560;13.566;2022-10-16T02:28:02;17.60;;;1.80;;
5678;SDS011;2862;52.560;13.566;2022-10-16T02:38:08;15.57;;;1.10;;
5678;SDS011;2862;52.560;13.566;2022-10-16T02:48:15;15.80;;;1.60;;
5678;SDS011;2862;52.560;13.566;2022-10-16T02:58:18;20.20;;;1.23;;
5678;SDS011;2862;52.560;13.566;2022-10-16T03:08:22;14.53;;;1.10;;
5678;SDS011;2862;52.560;13.566;2022-10-16T03:18:26;14.40;;;0.77;;
5678;SDS011;2862;52.560;13.566;2022-10-16T03:28:31;14.43;;;1.00;;
5678;SDS011;2862;52.560;13.566;2022-10-16T03:38:34;18.27;;;1.50;;
5678;SDS011;2862;52.560;13.566;2022-10-16T03:48:38;15.57;;;0.80;;
5678;SDS011;2862;52.560;13.566;2022-10-16T03:58:42;17.40;;;1.30;;
5678;SDS011;2862;52.560;13.566;2022-10-16T04:08:46;19.43;;;2.20;;
5678;SDS011;2862;52.560;13.566;2022-10-16T04:18:49;19.93;;;3.70;;
5678;SDS011;2862;52.560;13.566;2022-10-16T04:28:54;15.83;;;1.03;;
5678;SDS011;2862;52.560;13.566;2022-10-16T04:38:56;16.60;;;2.07;;
5678;SDS011;2862;52.560;13.566;2022-10-16T04:49:01;17.47;;;2.23;;
5678;SDS011;2862;52.560;13.566;2022-10-16T04:59:08;18.20;;;1.70;;
5678;SDS011;2862;52.560;13.566;2022-10-16T05:09:43;15.80;;;1.77;;
5678;SDS011;2862;52.560;13.566;2022-10-16T05:19:46;16.97;;;1.13;;
5678;SDS011;2862;52.560;13.566;2022-10-16T05:29:50;17.17;;;2.03;;
5678;SDS011;2862;52.560;13.566;2022-10-16T05:39:53;17.63;;;1.70;;
5678;SDS011;2862;52.560;13.566;2022-10-16T05:49:57;18.00;;;3.33;;
5678;SDS011;2862;52.560;13.566;2022-10-16T06:00:01;16.40;;;2.13;;
5678;SDS011;2862;52.560;13.566;2022-10-16T06:10:14;16.17;;;1.67;;
5678;SDS011;2862;52.560;13.566;2022-10-16T06:20:17;25.43;;;7.97;;
5678;SDS011;2862;52.560;13.566;2022-10-16T06:30:21;14.67;;;1.10;;
5678;SDS011;2862;52.560;13.566;2022-10-16T06:40:24;14.37;;;1.20;;
5678;SDS011;2862;52.560;13.566;2022-10-16T06:50:28;15.17;;;1.40;;
5678;SDS011;2862;52.560;13.566;2022-10-16T07:00:37;16.50;;;1.43;;
5678;SDS011;2862;52.560;13.566;2022-10-16T07:10:44;15.77;;;1.10;;
5678;SDS011;2862;52.560;13.566;2022-10-16T07:21:08;14.17;;;0.80;;
5678;SDS011;2862;52.560;13.566;2022-10-16T07:31:15;15.10;;;1.30;;
5678;SDS011;2862;52.560;13.566;2022-10-16T07:41:33;17.80;;;0.83;;
5678;SDS011;2862;52.560;13.566;2022-10-16T07:51:48;19.40;;;3.20;;
5678;SDS011;2862;52.560;13.566;2022-10-16T08:01:55;17.30;;;1.83;;
5678;SDS011;2862;52.560;13.566;2022-10-16T08:12:04;17.97;;;3.33;;
5678;SDS011;2862;52.560;13.566;2022-10-16T08:22:07;18.80;;;3.80;;
5678;SDS011;2862;52.560;13.566;2022-10-16T08:32:13;15.40;;;1.10;;
5678;SDS011;2862;52.560;13.566;2022-10-16T08:42:27;17.40;;;3.03;;
5678;SDS011;2862;52.560;13.566;2022-10-16T08:52:44;16.90;;;2.20;;
5678;SDS011;2862;52.560;13.566;2022-10-16T09:02:49;23.43;;;7.33;;
5678;SDS011;2862;52.560;13.566;2022-10-16T09:13:04;18.07;;;1.23;;
5678;SDS011;2862;52.560;13.566;2022-10-16T09:23:18;14.63;;;0.60;;
5678;SDS011;2862;52.560;13.566;2022-10-16T09:33:24;14.87;;;0.50;;
5678;SDS011;2862;52.560;13.566;2022-10-16T09:43:33;13.93;;;0.70;;
5678;SDS011;2862;52.560;13.566;2022-10-16T09:53:43;16.10;;;0.60;;
5678;SDS011;2862;52.560;13.566;2022-10-16T10:03:47;13.07;;;0.33;;
5678;SDS011;2862;52.560;13.566;2022-10-16T10:13:53;17.40;;;3.10;;
5678;SDS011;2862;52.560;13.566;2022-10-16T10:24:09;15.63;;;0.60;;
5678;SDS011;2862;52.560;13.566;2022-10-16T10:34:19;15.30;;;1.17;;
5678;SDS011;2862;52.560;13.566;2022-10-16T10:44:39;18.50;;;3.30;;
5678;SDS011;2862;52.560;13.566;2022-10-16T10:55:02;13.73;;;0.70;;
5678;SDS011;2862;52.560;13.566;2022-10-16T11:05:19;13.70;;;0.70;;
5678;SDS011;2862;52.560;13.566;2022-10-16T11:15:43;16.03;;;0.70;;
5678;SDS011;2862;52.560;13.566;2022-10-16T11:25:55;12.30;;;0.27;;
5678;SDS011;2862;52.560;13.566;2022-10-16T11:36:13;14.10;;;0.40;;
5678;SDS011;2862;52.560;13.566;2022-10-16T11:46:21;20.63;;;0.40;;
5678;SDS011;2862;52.560;13.566;2022-10-16T11:56:28;14.20;;;0.60;;
5678;SDS011;2862;52.560;13.566;2022-10-16T12:06:37;14.80;;;0.30;;
5678;SDS011;2862;52.560;13.566;2022-10-16T12:16:52;13.10;;;0.30;;
5678;SDS011;2862;52.560;13.566;2022-10-16T12:27:19;16.03;;;0.30;;
5678;SDS011;2862;52.560;13.566;2022-10-16T12:37:31;14.17;;;0.40;;
5678;SDS011;2862;52.560;13.566;2022-10-16T12:47:46;13.23;;;0.30;;
5678;SDS011;2862;52.560;13.566;2022-10-16T12:58:03;14.57;;;0.30;;
5678;SDS011;2862;52.560;13.566;2022-10-16T13:08:22;14.20;;;0.33;;
5678;SDS011;2862;52.560;13.566;2022-10-16T13:18:40;12.70;;;0.20;;
5678;SDS011;2862;52.560;13.566;2022-10-16T13:28:49;12.60;;;0.20;;
5678;SDS011;2862;52.560;13.566;2022-10-16T13:39:03;13.00;;;0.20;;
5678;SDS011;2862;52.560;13.566;2022-10-16T13:49:14;16.00;;;1.00;;
5678;SDS011;2862;52.560;13.566;2022-10-16T13:59:26;12.33;;;0.20;;
5678;SDS011;2862;52.560;13.566;2022-10-16T14:09:35;12.90;;;0.20;;
5678;SDS011;2862;52.560;13.566;2022-10-16T14:19:40;18.10;;;0.30;;
5678;SDS011;2862;52.560;13.566;2022-10-16T14:29:49;12.60;;;0.20;;
5678;SDS011;2862;52.560;13.566;2022-10-16T14:39:54;12.57;;;0.20;;
5678;SDS011;2862;52.560;13.566;2022-10-16T14:49:58;13.20;;;0.20;;
5678;SDS011;2862;52.560;13.566;2022-10-16T15:00:02;22.30;;;0.80;;
5678;SDS011;2862;52.560;13.566;2022-10-16T15:10:07;14.87;;;0.30;;
5678;SDS011;2862;52.560;13.566;2022-10-16T15:20:11;14.93;;;0.40;;
5678;SDS011;2862;52.560;13.566;2022-10-16T15:30:14;13.27;;;0.30;;
5678;SDS011;2862;52.560;13.566;2022-10-16T15:40:20;13.90;;;0.30;;
5678;SDS011;2862;52.560;13.566;2022-10-16T15:50:24;14.37;;;0.30;;
5678;SDS011;2862;52.560;13.566;2022-10-16T16:00:31;14.80;;;0.30;;
5678;SDS011;2862;52.560;13.566;2022-10-16T16:10:34;16.73;;;1.43;;
5678;SDS011;2862;52.560;13.566;2022-10-16T16:20:38;14.57;;;0.50;;
5678;SDS011;2862;52.560;13.566;2022-10-16T16:30:41;16.77;;;1.30;;
5678;SDS011;2862;52.560;13.566;2022-10-16T16:40:46;15.47;;;0.43;;
5678;SDS011;2862;52.560;13.566;2022-10-16T16:50:53;23.10;;;2.70;;
5678;SDS011;2862;52.560;13.566;2022-10-16T17:00:57;15.63;;;0.37;;
5678;SDS011;2862;52.560;13.566;2022-10-16T17:11:20;14.97;;;0.60;;
5678;SDS011;2862;52.560;13.566;2022-10-16T17:21:25;14.43;;;0.50;;
5678;SDS011;2862;52.560;13.566;2022-10-16T17:31:31;15.43;;;0.60;;
5678;SDS011;2862;52.560;13.566;2022-10-16T17:41:37;18.87;;;0.57;;
5678;SDS011;2862;52.560;13.566;2022-10-16T17:51:39;21.03;;;2.10;;
5678;SDS011;2862;52.560;13.566;2022-10-16T18:01:43;16.60;;;1.10;;
5678;SDS011;2862;52.560;13.566;2022-10-16T18:11:46;17.80;;;1.30;;
5678;SDS011;2862;52.560;13.566;2022-10-16T18:21:54;16.60;;;1.00;;
5678;SDS011;2862;52.560;13.566;2022-10-16T18:31:57;22.50;;;1.10;;
5678;SDS011;2862;52.560;13.566;2022-10-16T18:42:02;18.10;;;2.00;;
5678;SDS011;2862;52.560;13.566;2022-10-16T18:52:04;23.73;;;3.07;;
5678;SDS011;2862;52.560;13.566;2022-10-16T19:02:09;21.90;;;3.17;;
5678;SDS011;2862;52.560;13.566;2022-10-16T19:12:13;23.73;;;4.83;;
5678;SDS011;2862;52.560;13.566;2022-10-16T19:22:18;23.37;;;5.57;;
5678;SDS011;2862;52.560;13.566;2022-10-16T19:32:41;25.57;;;5.63;;
5678;SDS011;2862;52.560;13.566;2022-10-16T19:42:50;22.57;;;5.00;;
5678;SDS011;2862;52.560;13.566;2022-10-16T19:52:56;25.10;;;4.90;;
5678;SDS011;2862;52.560;13.566;2022-10-16T20:03:03;27.57;;;6.50;;
5678;SDS011;2862;52.560;13.566;2022-10-16T20:13:06;26.90;;;6.33;;
5678;SDS011;2862;52.560;13.566;2022-10-16T20:23:10;26.63;;;7.83;;
5678;SDS011;2862;52.560;13.566;2022-10-16T20:33:13;27.90;;;5.03;;
5678;SDS011;2862;52.560;13.566;2022-10-16T20:43:18;24.27;;;6.20;;
5678;SDS011;2862;52.560;13.566;2022-10-16T20:53:21;33.40;;;10.40;;
5678;SDS011;2862;52.560;13.566;2022-10-16T21:03:25;35.10;;;8.83;;
5678;SDS011;2862;52.560;13.566;2022-10-16T21:13:29;27.20;;;8.13;;
5678;SDS011;2862;52.560;13.566;2022-10-16T21:23:34;38.13;;;14.87;;
5678;SDS011;2862;52.560;13.566;2022-10-16T21:33:37;27.37;;;9.63;;
5678;SDS011;2862;52.560;13.566;2022-10-16T21:43:41;28.07;;;9.07;;
5678;SDS011;2862;52.560;13.566;2022-10-16T21:53:44;27.27;;;9.20;;
5678;SDS011;2862;52.560;13.566;2022-10-16T22:03:49;26.80;;;7.73;;
5678;SDS011;2862;52.560;13.566;2022-10-16T22:13:54;30.73;;;12.07;;
5678;SDS011;2862;52.560;13.566;2022-10-16T22:23:59;28.23;;;8.77;;
5678;SDS011;2862;52.560;13.566;2022-10-16T22:34:03;28.83;;;9.70;;
5678;SDS011;2862;52.560;13.566;2022-10-16T22:44:10;24.33;;;7.17;;
5678;SDS011;2862;52.560;13.566;2022-10-16T22:54:14;29.30;;;9.40;;
5678;SDS011;2862;52.560;13.566;2022-10-16T23:04:19;25.87;;;7.90;;
5678;SDS011;2862;52.560;13.566;2022-10-16T23:14:22;26.90;;;7.63;;
5678;SDS011;2862;52.560;13.566;2022-10-16T23:24:27;28.00;;;9.60;;
5678;SDS011;2862;52.560;13.566;2022-10-16T23:34:31;25.30;;;6.80;;
5678;SDS011;2862;52.560;13.566;2022-10-16T23:44:36;23.57;;;7.30;;
5678;SDS011;2862;52.560;13.566;2022-10-16T23:54:39;21.97;;;6.03;;
